createdAt,value
2018-11-25T00:02:01.627Z,8.00
2018-11-25T00:04:28.358Z,8.10
2018-11-25T00:06:54.321Z,8.00
2018-11-25T00:09:20.284Z,8.10
2018-11-25T00:11:46.269Z,8.20
2018-11-25T00:14:12.231Z,8.30
2018-11-25T00:16:38.204Z,8.40
2018-11-25T00:19:04.208Z,8.40
2018-11-25T00:21:30.214Z,8.40
2018-11-25T00:23:56.972Z,8.50
2018-11-25T00:26:23.013Z,8.50
2018-11-25T00:28:48.974Z,8.50
2018-11-25T00:31:14.922Z,8.50
2018-11-25T00:33:41.640Z,8.60
2018-11-25T00:36:07.604Z,8.60
2018-11-25T00:38:33.621Z,8.50
2018-11-25T00:40:59.575Z,8.50
2018-11-25T00:43:25.549Z,8.50
2018-11-25T00:45:52.246Z,8.50
2018-11-25T00:48:18.222Z,8.40
2018-11-25T00:50:44.896Z,8.50
2018-11-25T00:53:10.869Z,8.50
2018-11-25T00:55:37.619Z,8.50
2018-11-25T00:58:03.609Z,8.50
2018-11-25T01:00:29.566Z,8.50
2018-11-25T01:02:55.551Z,8.50
2018-11-25T01:05:21.553Z,8.60
2018-11-25T01:07:47.513Z,8.60
2018-11-25T01:10:14.239Z,8.60
2018-11-25T01:12:40.225Z,8.50
2018-11-25T01:15:06.204Z,8.60
2018-11-25T01:17:32.219Z,8.60
2018-11-25T01:19:58.906Z,8.60
2018-11-25T01:22:24.852Z,8.60
2018-11-25T01:24:50.836Z,8.50
2018-11-25T01:27:16.791Z,8.50
2018-11-25T01:29:42.740Z,8.60
2018-11-25T01:32:09.448Z,8.60
2018-11-25T01:34:35.424Z,8.60
2018-11-25T01:37:01.389Z,8.60
2018-11-25T01:39:27.357Z,8.60
2018-11-25T01:41:54.061Z,8.40
2018-11-25T01:44:20.008Z,8.40
2018-11-25T01:46:45.985Z,8.50
2018-11-25T01:49:11.926Z,8.50
2018-11-25T01:51:37.872Z,8.60
2018-11-25T01:54:04.607Z,8.50
2018-11-25T01:56:30.544Z,8.50
2018-11-25T01:58:56.495Z,8.50
2018-11-25T02:01:22.472Z,8.50
2018-11-25T02:03:49.207Z,8.50
2018-11-25T02:06:15.185Z,8.50
2018-11-25T02:08:41.148Z,8.50
2018-11-25T02:11:07.852Z,8.40
2018-11-25T02:13:33.804Z,8.40
2018-11-25T02:15:59.764Z,8.30
2018-11-25T02:18:25.704Z,8.40
2018-11-25T02:20:51.672Z,8.30
2018-11-25T02:23:18.369Z,7.80
2018-11-25T02:25:44.330Z,7.80
2018-11-25T02:28:20.297Z,7.60
2018-11-25T02:30:46.995Z,7.10
2018-11-25T02:33:12.952Z,7.00
2018-11-25T02:35:38.912Z,7.20
2018-11-25T02:38:04.884Z,7.40
2018-11-25T02:40:31.576Z,7.40
2018-11-25T02:42:57.517Z,7.40
2018-11-25T02:45:23.483Z,7.60
2018-11-25T02:47:50.163Z,7.90
2018-11-25T02:50:16.101Z,7.90
2018-11-25T02:52:42.093Z,8.00
2018-11-25T02:55:08.022Z,8.10
2018-11-25T02:57:33.958Z,8.20
2018-11-25T02:59:59.935Z,8.20
2018-11-25T03:02:25.900Z,8.10
2018-11-25T03:04:51.893Z,8.10
2018-11-25T03:07:17.852Z,8.10
2018-11-25T03:09:43.818Z,8.20
2018-11-25T03:12:09.785Z,8.30
2018-11-25T03:14:35.723Z,8.30
2018-11-25T03:17:01.689Z,8.30
2018-11-25T03:19:27.651Z,8.40
2018-11-25T03:21:53.634Z,8.50
2018-11-25T03:24:19.590Z,8.50
2018-11-25T03:26:45.553Z,8.50
2018-11-25T03:29:12.265Z,8.40
2018-11-25T03:31:38.237Z,8.40
2018-11-25T03:34:04.212Z,8.20
2018-11-25T03:36:30.172Z,8.10
2018-11-25T03:38:56.141Z,8.20
2018-11-25T03:41:22.104Z,7.90
2018-11-25T03:43:48.785Z,8.10
2018-11-25T03:46:14.724Z,8.00
2018-11-25T03:48:40.694Z,8.20
2018-11-25T03:51:06.724Z,8.30
2018-11-25T03:53:32.675Z,8.40
2018-11-25T03:55:58.654Z,8.40
2018-11-25T03:58:24.629Z,8.40
2018-11-25T04:00:50.610Z,8.40
2018-11-25T04:03:16.571Z,8.40
2018-11-25T04:05:42.536Z,8.40
2018-11-25T04:08:09.264Z,8.50
2018-11-25T04:10:35.224Z,8.50
2018-11-25T04:13:01.192Z,8.50
2018-11-25T04:15:27.143Z,8.50
2018-11-25T04:17:53.113Z,8.50
2018-11-25T04:20:19.111Z,8.40
2018-11-25T04:22:45.081Z,8.40
2018-11-25T04:25:11.079Z,8.50
2018-11-25T04:27:44.019Z,8.50
2018-11-25T04:30:10.005Z,8.50
2018-11-25T04:32:36.712Z,8.50
2018-11-25T04:35:02.672Z,8.50
2018-11-25T04:37:29.383Z,8.40
2018-11-25T04:39:55.347Z,8.40
2018-11-25T04:42:22.036Z,8.30
2018-11-25T04:44:48.016Z,8.30
2018-11-25T04:47:14.019Z,8.40
2018-11-25T04:49:40.700Z,8.40
2018-11-25T04:52:06.686Z,8.40
2018-11-25T04:54:33.375Z,8.30
2018-11-25T04:56:59.366Z,8.30
2018-11-25T04:59:25.342Z,8.40
2018-11-25T05:01:51.307Z,8.40
2018-11-25T05:04:17.278Z,8.40
2018-11-25T05:06:43.278Z,8.40
2018-11-25T05:09:09.256Z,8.40
2018-11-25T05:11:35.213Z,8.50
2018-11-25T05:14:01.242Z,8.40
2018-11-25T05:16:27.211Z,8.50
2018-11-25T05:18:53.900Z,8.50
2018-11-25T05:21:19.897Z,8.50
2018-11-25T05:23:45.864Z,8.50
2018-11-25T05:26:11.824Z,8.40
2018-11-25T05:28:38.523Z,8.10
2018-11-25T05:31:04.521Z,8.20
2018-11-25T05:33:30.491Z,8.00
2018-11-25T05:35:56.439Z,8.10
2018-11-25T05:38:22.399Z,8.20
2018-11-25T05:40:48.356Z,8.20
2018-11-25T05:43:14.321Z,8.30
2018-11-25T05:45:40.276Z,8.30
2018-11-25T05:49:36.789Z,8.20
2018-11-25T05:52:02.610Z,8.20
2018-11-25T05:54:28.698Z,8.20
2018-11-25T05:56:54.672Z,8.20
2018-11-25T05:59:20.661Z,8.20
2018-11-25T06:01:46.685Z,8.20
2018-11-25T06:04:12.662Z,8.20
2018-11-25T06:06:39.405Z,8.30
2018-11-25T06:09:05.409Z,8.30
2018-11-25T06:11:31.421Z,8.30
2018-11-25T06:13:58.196Z,8.30
2018-11-25T06:16:24.211Z,8.20
2018-11-25T06:18:50.191Z,8.20
2018-11-25T06:21:16.179Z,8.10
2018-11-25T06:23:42.215Z,8.10
2018-11-25T06:26:08.257Z,8.10
2018-11-25T06:28:34.334Z,8.00
2018-11-25T06:31:00.371Z,8.00
2018-11-25T06:33:26.407Z,7.90
2018-11-25T06:35:52.473Z,8.00
2018-11-25T06:38:18.514Z,8.00
2018-11-25T06:40:45.261Z,8.10
2018-11-25T06:43:12.030Z,8.10
2018-11-25T06:45:38.051Z,8.00
2018-11-25T06:48:04.098Z,8.00
2018-11-25T06:50:30.127Z,8.10
2018-11-25T06:52:56.155Z,8.10
2018-11-25T06:55:22.205Z,8.00
2018-11-25T06:57:48.235Z,8.00
2018-11-25T07:00:14.246Z,8.00
2018-11-25T07:02:40.281Z,8.10
2018-11-25T07:05:06.356Z,8.10
2018-11-25T07:07:32.429Z,8.00
2018-11-25T07:09:59.208Z,7.90
2018-11-25T07:12:25.294Z,7.90
2018-11-25T07:14:52.078Z,7.30
2018-11-25T07:17:18.108Z,7.30
2018-11-25T07:19:44.127Z,7.20
2018-11-25T07:22:10.180Z,7.00
2018-11-25T07:24:36.201Z,6.90
2018-11-25T07:27:02.226Z,6.90
2018-11-25T07:29:28.241Z,6.90
2018-11-25T07:31:54.274Z,6.80
2018-11-25T07:34:20.284Z,7.00
2018-11-25T07:36:46.284Z,7.10
2018-11-25T07:39:12.293Z,7.00
2018-11-25T07:41:38.310Z,7.00
2018-11-25T07:44:05.219Z,7.00
2018-11-25T07:46:31.295Z,6.90
2018-11-25T07:48:57.392Z,7.10
2018-11-25T07:51:24.177Z,7.50
2018-11-25T07:53:50.210Z,7.50
2018-11-25T07:56:16.241Z,7.60
2018-11-25T07:58:42.262Z,7.50
2018-11-25T08:01:08.317Z,7.50
2018-11-25T08:03:34.330Z,7.20
2018-11-25T08:06:00.373Z,7.10
2018-11-25T08:08:26.421Z,7.30
2018-11-25T08:10:52.466Z,7.40
2018-11-25T08:13:18.529Z,7.40
2018-11-25T08:15:44.556Z,7.40
2018-11-25T08:18:11.080Z,7.40
2018-11-25T08:20:36.656Z,7.30
2018-11-25T08:23:02.704Z,7.50
2018-11-25T08:25:28.796Z,8.30
2018-11-25T08:27:54.862Z,8.60
2018-11-25T08:30:20.895Z,9.00
2018-11-25T08:32:46.985Z,8.60
2018-11-25T08:35:13.026Z,8.40
2018-11-25T08:37:39.042Z,8.30
2018-11-25T08:40:05.063Z,8.00
2018-11-25T08:42:31.092Z,8.00
2018-11-25T08:44:57.066Z,8.40
2018-11-25T08:47:23.061Z,8.50
2018-11-25T08:49:49.058Z,8.60
2018-11-25T08:52:15.073Z,9.50
2018-11-25T08:54:41.046Z,9.40
2018-11-25T08:57:07.045Z,10.20
2018-11-25T08:59:33.030Z,11.10
2018-11-25T09:01:59.769Z,10.50
2018-11-25T09:04:26.502Z,11.20
2018-11-25T09:06:53.265Z,10.60
2018-11-25T09:09:19.259Z,10.50
2018-11-25T09:11:45.241Z,10.10
2018-11-25T09:14:11.242Z,10.70
2018-11-25T09:16:37.707Z,10.90
2018-11-25T09:19:03.964Z,10.80
2018-11-25T09:21:30.019Z,10.80
2018-11-25T09:23:56.022Z,10.70
2018-11-25T09:26:22.010Z,10.60
2018-11-25T09:28:48.789Z,9.80
2018-11-25T09:31:15.521Z,9.50
2018-11-25T09:33:41.517Z,9.50
2018-11-25T09:36:07.506Z,9.50
2018-11-25T09:38:33.505Z,9.20
2018-11-25T09:40:59.541Z,9.10
2018-11-25T09:43:25.512Z,8.80
2018-11-25T09:45:51.497Z,8.70
2018-11-25T09:48:17.493Z,8.70
2018-11-25T09:50:43.466Z,8.80
2018-11-25T09:53:09.473Z,9.20
2018-11-25T09:55:35.458Z,9.30
2018-11-25T09:58:02.212Z,9.40
2018-11-25T10:00:28.951Z,9.30
2018-11-25T10:02:55.689Z,9.00
2018-11-25T10:05:22.423Z,8.90
2018-11-25T10:07:49.210Z,9.30
2018-11-25T10:10:15.863Z,9.60
2018-11-25T10:12:41.849Z,9.60
2018-11-25T10:15:07.829Z,9.80
2018-11-25T10:17:33.849Z,9.50
2018-11-25T10:19:59.847Z,9.60
2018-11-25T10:22:25.833Z,9.80
2018-11-25T10:24:52.553Z,9.90
2018-11-25T10:27:18.543Z,9.90
2018-11-25T10:29:44.514Z,9.90
2018-11-25T10:32:10.509Z,10.10
2018-11-25T10:34:36.488Z,10.30
2018-11-25T10:37:02.557Z,10.30
2018-11-25T10:39:28.561Z,10.20
2018-11-25T10:41:54.525Z,10.20
2018-11-25T10:44:20.509Z,10.40
2018-11-25T10:46:46.497Z,10.30
2018-11-25T10:49:12.510Z,10.40
2018-11-25T10:51:38.497Z,10.20
2018-11-25T10:54:04.509Z,9.80
2018-11-25T10:56:30.485Z,9.70
2018-11-25T10:58:56.483Z,9.70
2018-11-25T11:01:22.492Z,9.70
2018-11-25T11:03:48.514Z,9.50
2018-11-25T11:06:14.517Z,10.00
2018-11-25T11:08:40.533Z,9.80
2018-11-25T11:11:06.524Z,9.90
2018-11-25T11:13:32.530Z,10.00
2018-11-25T11:15:58.531Z,10.40
2018-11-25T11:18:24.524Z,10.50
2018-11-25T11:20:50.493Z,10.10
2018-11-25T11:23:16.493Z,9.90
2018-11-25T11:25:42.485Z,10.10
2018-11-25T11:28:08.494Z,10.30
2018-11-25T11:30:34.501Z,9.90
2018-11-25T11:33:00.495Z,10.40
2018-11-25T11:35:26.496Z,10.40
2018-11-25T11:37:52.489Z,10.30
2018-11-25T11:40:18.491Z,10.10
2018-11-25T11:42:44.480Z,10.20
2018-11-25T11:45:10.489Z,10.40
2018-11-25T11:47:36.495Z,10.00
2018-11-25T11:50:02.495Z,9.90
2018-11-25T11:52:28.497Z,10.00
2018-11-25T11:54:55.217Z,10.00
2018-11-25T11:57:21.208Z,10.00
2018-11-25T11:59:47.202Z,10.20
2018-11-25T12:02:13.229Z,10.20
2018-11-25T12:04:39.222Z,10.10
2018-11-25T12:07:05.234Z,10.10
2018-11-25T12:09:31.208Z,10.20
2018-11-25T12:11:57.176Z,9.80
2018-11-25T12:14:23.173Z,9.90
2018-11-25T12:16:49.168Z,9.90
2018-11-25T12:19:15.158Z,9.80
2018-11-25T12:21:41.124Z,9.70
2018-11-25T12:24:07.110Z,10.00
2018-11-25T12:26:33.106Z,10.00
2018-11-25T12:28:59.124Z,9.90
2018-11-25T12:31:25.107Z,10.10
2018-11-25T12:33:51.077Z,10.20
2018-11-25T12:36:17.073Z,10.00
2018-11-25T12:38:43.050Z,10.20
2018-11-25T12:41:09.046Z,10.20
2018-11-25T12:43:35.068Z,10.10
2018-11-25T12:46:01.066Z,10.20
2018-11-25T12:48:27.066Z,9.90
2018-11-25T12:50:53.071Z,10.10
2018-11-25T12:53:19.072Z,9.90
2018-11-25T12:55:45.069Z,10.10
2018-11-25T12:58:11.058Z,10.00
2018-11-25T13:00:37.045Z,9.10
2018-11-25T13:03:03.028Z,9.30
2018-11-25T13:05:29.024Z,9.10
2018-11-25T13:07:55.036Z,9.20
2018-11-25T13:10:21.029Z,9.30
2018-11-25T13:12:47.016Z,9.00
2018-11-25T13:15:13.013Z,9.20
2018-11-25T13:17:39.017Z,9.10
2018-11-25T13:20:04.993Z,9.30
2018-11-25T13:22:31.002Z,9.30
2018-11-25T13:24:57.007Z,9.50
2018-11-25T13:27:23.029Z,9.70
2018-11-25T13:29:49.027Z,9.50
2018-11-25T13:32:15.011Z,9.50
2018-11-25T13:34:41.013Z,9.30
2018-11-25T13:37:07.034Z,9.40
2018-11-25T13:39:33.014Z,9.50
2018-11-25T13:41:59.003Z,9.60
2018-11-25T13:44:25.021Z,9.60
2018-11-25T13:46:51.008Z,9.40
2018-11-25T13:49:17.016Z,9.10
2018-11-25T13:51:43.088Z,9.40
2018-11-25T13:54:09.235Z,9.40
2018-11-25T13:56:35.329Z,9.20
2018-11-25T13:59:01.341Z,9.20
2018-11-25T14:01:28.122Z,9.40
2018-11-25T14:03:54.250Z,9.40
2018-11-25T14:06:20.340Z,9.60
2018-11-25T14:08:46.522Z,9.20
2018-11-25T14:11:12.675Z,9.30
2018-11-25T14:13:38.803Z,9.20
2018-11-25T14:16:04.898Z,9.20
2018-11-25T14:18:30.906Z,9.00
2018-11-25T14:20:57.047Z,9.00
2018-11-25T14:23:23.089Z,8.90
2018-11-25T14:25:49.855Z,8.80
2018-11-25T14:28:16.622Z,8.80
2018-11-25T14:30:42.612Z,8.70
2018-11-25T14:33:09.568Z,8.80
2018-11-25T14:35:35.566Z,8.80
2018-11-25T14:38:02.357Z,9.00
2018-11-25T14:40:28.381Z,9.00
2018-11-25T14:42:54.462Z,9.10
2018-11-25T14:45:20.547Z,9.00
2018-11-25T14:47:46.660Z,8.90
2018-11-25T14:50:12.732Z,8.90
2018-11-25T14:52:46.520Z,8.80
2018-11-25T14:55:12.572Z,8.80
2018-11-25T14:57:39.315Z,8.70
2018-11-25T15:00:06.101Z,8.60
2018-11-25T15:02:32.178Z,8.60
2018-11-25T15:04:58.406Z,8.70
2018-11-25T15:07:25.202Z,8.70
2018-11-25T15:09:51.270Z,8.70
2018-11-25T15:12:17.339Z,8.60
2018-11-25T15:14:43.430Z,8.70
2018-11-25T15:17:09.489Z,8.60
2018-11-25T15:19:35.518Z,8.60
2018-11-25T15:22:01.563Z,8.60
2018-11-25T15:24:27.609Z,8.60
2018-11-25T15:26:53.650Z,8.70
2018-11-25T15:29:19.713Z,8.50
2018-11-25T15:31:45.909Z,8.40
2018-11-25T15:34:11.988Z,8.60
2018-11-25T15:36:38.043Z,8.60
2018-11-25T15:39:04.229Z,8.60
2018-11-25T15:41:30.465Z,8.60
2018-11-25T15:43:56.624Z,8.70
2018-11-25T15:46:22.665Z,8.70
2018-11-25T15:48:49.442Z,8.60
2018-11-25T15:51:15.510Z,8.50
2018-11-25T15:53:41.515Z,8.30
2018-11-25T15:56:07.495Z,8.50
2018-11-25T15:58:33.522Z,8.50
2018-11-25T16:00:59.530Z,8.50
2018-11-25T16:03:25.541Z,8.60
2018-11-25T16:05:51.506Z,8.60
2018-11-25T16:08:17.546Z,8.60
2018-11-25T16:10:43.532Z,8.50
2018-11-25T16:13:09.559Z,8.40
2018-11-25T16:15:35.525Z,8.20
2018-11-25T16:18:01.615Z,8.20
2018-11-25T16:20:27.778Z,8.40
2018-11-25T16:22:53.978Z,8.40
2018-11-25T16:25:20.054Z,8.40
2018-11-25T16:27:46.885Z,8.50
2018-11-25T16:30:13.742Z,8.30
2018-11-25T16:32:40.593Z,8.30
2018-11-25T16:35:07.385Z,8.20
2018-11-25T16:37:33.431Z,8.20
2018-11-25T16:39:59.422Z,8.30
2018-11-25T16:42:25.432Z,8.20
2018-11-25T16:44:51.479Z,8.20
2018-11-25T16:47:17.471Z,8.30
2018-11-25T16:49:43.456Z,7.90
2018-11-25T16:52:09.525Z,7.80
2018-11-25T16:54:35.534Z,7.60
2018-11-25T16:57:01.537Z,7.40
2018-11-25T16:59:27.608Z,7.30
2018-11-25T17:01:53.800Z,7.50
2018-11-25T17:04:20.018Z,7.20
2018-11-25T17:06:46.081Z,7.10
2018-11-25T17:09:12.065Z,7.30
2018-11-25T17:11:38.069Z,7.10
2018-11-25T17:14:04.029Z,6.90
2018-11-25T17:16:30.015Z,6.80
2018-11-25T17:18:56.025Z,6.90
2018-11-25T17:21:22.073Z,7.00
2018-11-25T17:23:48.060Z,7.00
2018-11-25T17:26:14.062Z,7.00
2018-11-25T17:28:40.070Z,7.00
2018-11-25T17:31:06.820Z,6.80
2018-11-25T17:33:33.562Z,6.90
2018-11-25T17:35:59.540Z,6.90
2018-11-25T17:38:25.536Z,6.70
2018-11-25T17:40:51.630Z,6.70
2018-11-25T17:43:18.358Z,6.70
2018-11-25T17:45:44.419Z,6.70
2018-11-25T17:48:10.664Z,6.60
2018-11-25T17:50:36.665Z,6.80
2018-11-25T17:53:02.687Z,6.70
2018-11-25T17:55:28.839Z,6.70
2018-11-25T17:57:54.937Z,6.80
2018-11-25T18:00:20.999Z,6.70
2018-11-25T18:02:46.998Z,6.70
2018-11-25T18:05:13.041Z,6.60
2018-11-25T18:07:39.045Z,6.60
2018-11-25T18:10:05.044Z,6.60
2018-11-25T18:12:31.919Z,6.70
2018-11-25T18:14:57.926Z,6.70
2018-11-25T18:17:23.943Z,6.80
2018-11-25T18:19:49.928Z,6.80
2018-11-25T18:22:15.911Z,6.80
2018-11-25T18:24:41.909Z,6.80
2018-11-25T18:27:07.917Z,6.70
2018-11-25T18:29:33.925Z,6.60
2018-11-25T18:32:00.222Z,6.60
2018-11-25T18:34:26.277Z,6.60
2018-11-25T18:36:52.249Z,6.60
2018-11-25T18:39:18.262Z,6.70
2018-11-25T18:41:44.241Z,6.60
2018-11-25T18:44:10.232Z,6.60
2018-11-25T18:46:36.221Z,6.70
2018-11-25T18:49:02.210Z,6.70
2018-11-25T18:51:28.212Z,6.70
2018-11-25T18:53:54.229Z,6.60
2018-11-25T18:56:20.233Z,6.70
2018-11-25T18:58:46.228Z,6.60
2018-11-25T19:01:12.229Z,6.60
2018-11-25T19:03:38.244Z,6.50
2018-11-25T19:06:04.252Z,6.60
2018-11-25T19:08:30.315Z,6.40
2018-11-25T19:10:56.346Z,6.50
2018-11-25T19:13:22.356Z,6.40
2018-11-25T19:15:48.349Z,6.30
2018-11-25T19:18:14.345Z,6.20
2018-11-25T19:20:40.365Z,6.30
2018-11-25T19:23:06.450Z,6.40
2018-11-25T19:25:32.435Z,6.40
2018-11-25T19:27:58.457Z,6.60
2018-11-25T19:30:26.828Z,6.60
2018-11-25T19:32:57.167Z,6.40
2018-11-25T19:35:23.165Z,6.60
2018-11-25T19:37:49.169Z,6.50
2018-11-25T19:40:15.985Z,6.40
2018-11-25T19:42:41.994Z,6.40
2018-11-25T19:45:08.155Z,6.30
2018-11-25T19:47:34.160Z,6.30
2018-11-25T19:50:00.168Z,6.40
2018-11-25T19:52:26.400Z,6.40
2018-11-25T19:54:52.497Z,6.30
2018-11-25T19:57:18.559Z,6.40
2018-11-25T19:59:44.656Z,6.50
2018-11-25T20:02:10.850Z,6.50
2018-11-25T20:04:36.945Z,6.50
2018-11-25T20:07:03.086Z,6.70
2018-11-25T20:09:29.917Z,6.70
2018-11-25T20:11:56.017Z,6.70
2018-11-25T20:14:22.098Z,6.70
2018-11-25T20:16:48.141Z,6.80
2018-11-25T20:19:14.297Z,6.80
2018-11-25T20:21:40.593Z,6.90
2018-11-25T20:24:06.617Z,7.00
2018-11-25T20:26:32.706Z,7.00
2018-11-25T20:28:58.787Z,6.90
2018-11-25T20:34:10.581Z,7.10
2018-11-25T20:36:36.675Z,7.20
2018-11-25T20:39:03.748Z,7.20
2018-11-25T20:41:29.802Z,7.40
2018-11-25T20:43:55.819Z,7.50
2018-11-25T20:46:36.832Z,7.30
2018-11-25T20:49:02.908Z,7.50
2018-11-25T20:51:28.978Z,7.50
2018-11-25T20:53:55.824Z,7.60
2018-11-25T20:56:21.833Z,7.60
2018-11-25T20:58:47.856Z,7.60
2018-11-25T21:01:14.006Z,7.60
2018-11-25T21:03:40.122Z,7.60
2018-11-25T21:06:06.278Z,7.60
2018-11-25T21:08:32.333Z,7.60
2018-11-25T21:10:58.402Z,7.60
2018-11-25T21:13:24.515Z,7.60
2018-11-25T21:15:50.616Z,7.50
2018-11-25T21:18:16.642Z,7.60
2018-11-25T21:20:50.875Z,7.50
2018-11-25T21:23:08.718Z,7.40
2018-11-25T21:25:35.484Z,7.40
2018-11-25T21:28:02.280Z,7.30
2018-11-25T21:30:28.300Z,7.20
2018-11-25T21:32:54.357Z,7.30
2018-11-25T21:35:20.409Z,7.10
2018-11-25T21:37:47.678Z,7.20
2018-11-25T21:40:13.756Z,7.10
2018-11-25T21:42:39.805Z,7.10
2018-11-25T21:45:05.862Z,7.00
2018-11-25T21:47:31.940Z,7.00
2018-11-25T21:49:58.754Z,7.00
2018-11-25T21:52:24.803Z,7.00
2018-11-25T21:54:50.851Z,6.80
2018-11-25T21:57:16.916Z,7.10
2018-11-25T21:59:42.926Z,6.90
2018-11-25T22:02:08.998Z,7.00
2018-11-25T22:04:38.974Z,7.00
2018-11-25T22:07:05.088Z,7.00
2018-11-25T22:09:31.081Z,6.90
2018-11-25T22:11:57.129Z,7.00
2018-11-25T22:14:30.129Z,7.00
2018-11-25T22:16:56.237Z,6.90
2018-11-25T22:19:22.273Z,6.80
2018-11-25T22:21:48.276Z,6.90
2018-11-25T22:24:14.406Z,7.00
2018-11-25T22:26:40.425Z,7.00
2018-11-25T22:29:06.461Z,6.80
2018-11-25T22:31:32.548Z,6.80
2018-11-25T22:33:58.599Z,6.60
2018-11-25T22:36:24.625Z,6.70
2018-11-25T22:38:51.389Z,6.80
2018-11-25T22:41:17.430Z,6.80
2018-11-25T22:43:43.468Z,6.80
2018-11-25T22:46:09.747Z,6.60
2018-11-25T22:48:35.777Z,6.50
2018-11-25T22:51:01.813Z,6.40
2018-11-25T22:53:27.840Z,6.40
2018-11-25T22:55:53.919Z,6.30
2018-11-25T22:58:20.686Z,6.10
2018-11-25T23:00:47.437Z,6.00
2018-11-25T23:03:13.485Z,6.00
2018-11-25T23:05:48.594Z,6.10
2018-11-25T23:08:14.605Z,6.10
2018-11-25T23:10:40.637Z,6.10
2018-11-25T23:13:06.686Z,6.10
2018-11-25T23:15:32.759Z,6.20
2018-11-25T23:17:58.822Z,6.30
2018-11-25T23:20:24.897Z,6.30
2018-11-25T23:22:50.963Z,6.20
2018-11-25T23:25:16.986Z,6.30
2018-11-25T23:27:43.037Z,6.30
2018-11-25T23:30:09.105Z,6.30
2018-11-25T23:32:35.898Z,6.30
2018-11-25T23:35:01.918Z,6.30
2018-11-25T23:37:27.981Z,6.30
2018-11-25T23:39:54.012Z,6.60
2018-11-25T23:42:20.109Z,6.50
2018-11-25T23:44:46.157Z,6.50
2018-11-25T23:47:12.309Z,6.40
2018-11-25T23:49:39.090Z,6.60
2018-11-25T23:52:05.128Z,6.60
2018-11-25T23:54:31.130Z,6.40
2018-11-25T23:56:57.168Z,6.50
2018-11-25T23:59:23.446Z,6.10
